sensor_id;sensor_type;location;lat;lon;timestamp;P1;durP1;ratioP1;P2;durP2;ratioP2
58242;SDS011;50118;53.232;8.252;2023-05-07T00:01:03;26.67;;;18.42;;
58242;SDS011;50118;53.232;8.252;2023-05-07T00:03:30;25.30;;;16.67;;
58242;SDS011;50118;53.232;8.252;2023-05-07T00:05:56;26.92;;;17.60;;
58242;SDS011;50118;53.232;8.252;2023-05-07T00:08:21;27.95;;;17.15;;
58242;SDS011;50118;53.232;8.252;2023-05-07T00:10:47;26.45;;;17.13;;
58242;SDS011;50118;53.232;8.252;2023-05-07T00:13:12;28.00;;;18.63;;
58242;SDS011;50118;53.232;8.252;2023-05-07T00:15:38;27.33;;;17.70;;
58242;SDS011;50118;53.232;8.252;2023-05-07T00:18:03;28.98;;;17.77;;
58242;SDS011;50118;53.232;8.252;2023-05-07T00:20:29;27.02;;;17.58;;
58242;SDS011;50118;53.232;8.252;2023-05-07T00:22:55;27.58;;;18.35;;
58242;SDS011;50118;53.232;8.252;2023-05-07T00:25:20;28.95;;;18.65;;
58242;SDS011;50118;53.232;8.252;2023-05-07T00:27:46;29.90;;;19.63;;
58242;SDS011;50118;53.232;8.252;2023-05-07T00:30:11;28.88;;;19.17;;
58242;SDS011;50118;53.232;8.252;2023-05-07T00:32:37;29.45;;;18.25;;
58242;SDS011;50118;53.232;8.252;2023-05-07T00:35:03;27.20;;;17.58;;
58242;SDS011;50118;53.232;8.252;2023-05-07T00:37:29;26.80;;;19.30;;
58242;SDS011;50118;53.232;8.252;2023-05-07T00:39:55;26.50;;;18.27;;
58242;SDS011;50118;53.232;8.252;2023-05-07T00:42:21;28.45;;;18.50;;
58242;SDS011;50118;53.232;8.252;2023-05-07T00:44:47;29.15;;;19.02;;
58242;SDS011;50118;53.232;8.252;2023-05-07T00:47:12;29.08;;;20.63;;
58242;SDS011;50118;53.232;8.252;2023-05-07T00:49:39;28.92;;;20.40;;
58242;SDS011;50118;53.232;8.252;2023-05-07T00:52:07;29.77;;;20.85;;
58242;SDS011;50118;53.232;8.252;2023-05-07T00:54:36;28.58;;;19.42;;
58242;SDS011;50118;53.232;8.252;2023-05-07T00:57:02;27.33;;;19.45;;
58242;SDS011;50118;53.232;8.252;2023-05-07T00:59:31;28.42;;;19.73;;
58242;SDS011;50118;53.232;8.252;2023-05-07T01:01:57;26.25;;;18.17;;
58242;SDS011;50118;53.232;8.252;2023-05-07T01:04:23;28.67;;;18.95;;
58242;SDS011;50118;53.232;8.252;2023-05-07T01:06:49;27.83;;;18.42;;
58242;SDS011;50118;53.232;8.252;2023-05-07T01:09:15;26.33;;;18.63;;
58242;SDS011;50118;53.232;8.252;2023-05-07T01:11:40;25.80;;;18.80;;
58242;SDS011;50118;53.232;8.252;2023-05-07T01:14:08;25.15;;;17.45;;
58242;SDS011;50118;53.232;8.252;2023-05-07T01:16:34;26.02;;;18.25;;
58242;SDS011;50118;53.232;8.252;2023-05-07T01:19:00;23.98;;;17.00;;
58242;SDS011;50118;53.232;8.252;2023-05-07T01:21:26;24.00;;;16.13;;
58242;SDS011;50118;53.232;8.252;2023-05-07T01:23:52;23.77;;;17.15;;
58242;SDS011;50118;53.232;8.252;2023-05-07T01:26:19;25.38;;;17.42;;
58242;SDS011;50118;53.232;8.252;2023-05-07T01:28:45;26.27;;;18.10;;
58242;SDS011;50118;53.232;8.252;2023-05-07T01:31:11;26.55;;;18.67;;
58242;SDS011;50118;53.232;8.252;2023-05-07T01:33:38;25.73;;;18.20;;
58242;SDS011;50118;53.232;8.252;2023-05-07T01:36:06;25.05;;;17.60;;
58242;SDS011;50118;53.232;8.252;2023-05-07T01:38:34;26.35;;;18.55;;
58242;SDS011;50118;53.232;8.252;2023-05-07T01:41:01;26.85;;;18.27;;
58242;SDS011;50118;53.232;8.252;2023-05-07T01:43:28;28.58;;;19.00;;
58242;SDS011;50118;53.232;8.252;2023-05-07T01:45:55;28.25;;;18.75;;
58242;SDS011;50118;53.232;8.252;2023-05-07T01:48:22;28.20;;;18.52;;
58242;SDS011;50118;53.232;8.252;2023-05-07T01:50:48;26.63;;;19.05;;
58242;SDS011;50118;53.232;8.252;2023-05-07T01:53:14;24.65;;;17.83;;
58242;SDS011;50118;53.232;8.252;2023-05-07T01:55:40;24.17;;;16.67;;
58242;SDS011;50118;53.232;8.252;2023-05-07T01:58:05;24.45;;;17.45;;
58242;SDS011;50118;53.232;8.252;2023-05-07T02:00:31;22.30;;;15.90;;
58242;SDS011;50118;53.232;8.252;2023-05-07T02:02:56;24.52;;;17.42;;
58242;SDS011;50118;53.232;8.252;2023-05-07T02:05:22;25.00;;;18.13;;
58242;SDS011;50118;53.232;8.252;2023-05-07T02:07:47;25.13;;;17.00;;
58242;SDS011;50118;53.232;8.252;2023-05-07T02:10:13;21.52;;;15.82;;
58242;SDS011;50118;53.232;8.252;2023-05-07T02:12:38;22.52;;;15.00;;
58242;SDS011;50118;53.232;8.252;2023-05-07T02:15:04;20.75;;;15.27;;
58242;SDS011;50118;53.232;8.252;2023-05-07T02:17:30;23.25;;;15.70;;
58242;SDS011;50118;53.232;8.252;2023-05-07T02:19:57;24.15;;;17.10;;
58242;SDS011;50118;53.232;8.252;2023-05-07T02:22:23;20.60;;;15.10;;
58242;SDS011;50118;53.232;8.252;2023-05-07T02:24:49;24.20;;;16.23;;
58242;SDS011;50118;53.232;8.252;2023-05-07T02:27:14;23.65;;;16.75;;
58242;SDS011;50118;53.232;8.252;2023-05-07T02:29:39;23.10;;;15.85;;
58242;SDS011;50118;53.232;8.252;2023-05-07T02:32:05;23.50;;;16.00;;
58242;SDS011;50118;53.232;8.252;2023-05-07T02:34:30;21.70;;;16.17;;
58242;SDS011;50118;53.232;8.252;2023-05-07T02:36:56;23.60;;;16.27;;
58242;SDS011;50118;53.232;8.252;2023-05-07T02:39:21;22.25;;;15.52;;
58242;SDS011;50118;53.232;8.252;2023-05-07T02:41:47;23.60;;;17.90;;
58242;SDS011;50118;53.232;8.252;2023-05-07T02:44:12;24.33;;;17.35;;
58242;SDS011;50118;53.232;8.252;2023-05-07T02:46:38;22.73;;;16.60;;
58242;SDS011;50118;53.232;8.252;2023-05-07T02:49:03;25.00;;;17.30;;
58242;SDS011;50118;53.232;8.252;2023-05-07T02:51:29;25.08;;;18.27;;
58242;SDS011;50118;53.232;8.252;2023-05-07T02:53:55;26.02;;;17.63;;
58242;SDS011;50118;53.232;8.252;2023-05-07T02:56:21;24.70;;;17.45;;
58242;SDS011;50118;53.232;8.252;2023-05-07T02:58:46;22.35;;;16.23;;
58242;SDS011;50118;53.232;8.252;2023-05-07T03:01:12;22.92;;;16.88;;
58242;SDS011;50118;53.232;8.252;2023-05-07T03:03:39;24.48;;;17.00;;
58242;SDS011;50118;53.232;8.252;2023-05-07T03:06:05;23.38;;;17.15;;
58242;SDS011;50118;53.232;8.252;2023-05-07T03:08:31;24.30;;;17.48;;
58242;SDS011;50118;53.232;8.252;2023-05-07T03:10:57;27.58;;;19.42;;
58242;SDS011;50118;53.232;8.252;2023-05-07T03:13:23;30.55;;;20.02;;
58242;SDS011;50118;53.232;8.252;2023-05-07T03:15:48;28.55;;;19.45;;
58242;SDS011;50118;53.232;8.252;2023-05-07T03:18:14;25.33;;;16.55;;
58242;SDS011;50118;53.232;8.252;2023-05-07T03:20:39;25.67;;;18.48;;
58242;SDS011;50118;53.232;8.252;2023-05-07T03:23:05;27.70;;;19.80;;
58242;SDS011;50118;53.232;8.252;2023-05-07T03:25:31;29.02;;;19.83;;
58242;SDS011;50118;53.232;8.252;2023-05-07T03:27:57;25.08;;;18.20;;
58242;SDS011;50118;53.232;8.252;2023-05-07T03:30:22;27.90;;;19.42;;
58242;SDS011;50118;53.232;8.252;2023-05-07T03:32:48;26.45;;;18.50;;
58242;SDS011;50118;53.232;8.252;2023-05-07T03:35:13;25.42;;;18.13;;
58242;SDS011;50118;53.232;8.252;2023-05-07T03:37:39;26.20;;;18.65;;
58242;SDS011;50118;53.232;8.252;2023-05-07T03:40:05;23.88;;;16.85;;
58242;SDS011;50118;53.232;8.252;2023-05-07T03:42:31;24.45;;;15.73;;
58242;SDS011;50118;53.232;8.252;2023-05-07T03:44:56;23.15;;;15.45;;
58242;SDS011;50118;53.232;8.252;2023-05-07T03:47:22;21.63;;;14.77;;
58242;SDS011;50118;53.232;8.252;2023-05-07T03:49:47;24.73;;;15.80;;
58242;SDS011;50118;53.232;8.252;2023-05-07T03:52:14;24.42;;;16.73;;
58242;SDS011;50118;53.232;8.252;2023-05-07T03:54:39;25.50;;;16.63;;
58242;SDS011;50118;53.232;8.252;2023-05-07T03:57:05;28.60;;;16.92;;
58242;SDS011;50118;53.232;8.252;2023-05-07T03:59:30;24.20;;;16.10;;
58242;SDS011;50118;53.232;8.252;2023-05-07T04:01:56;24.27;;;16.08;;
58242;SDS011;50118;53.232;8.252;2023-05-07T04:04:21;25.85;;;16.60;;
58242;SDS011;50118;53.232;8.252;2023-05-07T04:06:46;25.15;;;15.48;;
58242;SDS011;50118;53.232;8.252;2023-05-07T04:09:12;25.00;;;16.15;;
58242;SDS011;50118;53.232;8.252;2023-05-07T04:11:37;25.88;;;16.88;;
58242;SDS011;50118;53.232;8.252;2023-05-07T04:14:05;25.23;;;16.63;;
58242;SDS011;50118;53.232;8.252;2023-05-07T04:16:31;27.27;;;16.98;;
58242;SDS011;50118;53.232;8.252;2023-05-07T04:18:56;27.20;;;17.77;;
58242;SDS011;50118;53.232;8.252;2023-05-07T04:21:21;24.90;;;16.55;;
58242;SDS011;50118;53.232;8.252;2023-05-07T04:23:47;26.60;;;17.10;;
58242;SDS011;50118;53.232;8.252;2023-05-07T04:26:13;25.23;;;16.95;;
58242;SDS011;50118;53.232;8.252;2023-05-07T04:28:40;28.00;;;18.05;;
58242;SDS011;50118;53.232;8.252;2023-05-07T04:31:05;29.70;;;19.63;;
58242;SDS011;50118;53.232;8.252;2023-05-07T04:33:31;31.77;;;20.05;;
58242;SDS011;50118;53.232;8.252;2023-05-07T04:35:58;32.20;;;19.95;;
58242;SDS011;50118;53.232;8.252;2023-05-07T04:38:28;30.67;;;19.92;;
58242;SDS011;50118;53.232;8.252;2023-05-07T04:40:55;28.20;;;19.65;;
58242;SDS011;50118;53.232;8.252;2023-05-07T04:43:21;31.00;;;19.30;;
58242;SDS011;50118;53.232;8.252;2023-05-07T04:45:46;28.70;;;18.63;;
58242;SDS011;50118;53.232;8.252;2023-05-07T04:48:11;28.42;;;19.35;;
58242;SDS011;50118;53.232;8.252;2023-05-07T04:50:39;28.80;;;19.10;;
58242;SDS011;50118;53.232;8.252;2023-05-07T04:53:05;29.15;;;19.60;;
58242;SDS011;50118;53.232;8.252;2023-05-07T04:55:30;27.38;;;18.45;;
58242;SDS011;50118;53.232;8.252;2023-05-07T04:57:55;28.08;;;18.15;;
58242;SDS011;50118;53.232;8.252;2023-05-07T05:00:21;26.65;;;17.73;;
58242;SDS011;50118;53.232;8.252;2023-05-07T05:02:46;28.42;;;17.92;;
58242;SDS011;50118;53.232;8.252;2023-05-07T05:05:12;27.40;;;18.40;;
58242;SDS011;50118;53.232;8.252;2023-05-07T05:07:37;24.63;;;17.58;;
58242;SDS011;50118;53.232;8.252;2023-05-07T05:10:03;28.20;;;19.30;;
58242;SDS011;50118;53.232;8.252;2023-05-07T05:12:30;26.67;;;18.75;;
58242;SDS011;50118;53.232;8.252;2023-05-07T05:14:56;27.83;;;19.05;;
58242;SDS011;50118;53.232;8.252;2023-05-07T05:17:21;27.42;;;17.95;;
58242;SDS011;50118;53.232;8.252;2023-05-07T05:19:47;24.25;;;16.63;;
58242;SDS011;50118;53.232;8.252;2023-05-07T05:22:12;25.88;;;18.02;;
58242;SDS011;50118;53.232;8.252;2023-05-07T05:24:38;25.85;;;16.30;;
58242;SDS011;50118;53.232;8.252;2023-05-07T05:27:03;27.40;;;17.65;;
58242;SDS011;50118;53.232;8.252;2023-05-07T05:29:29;23.80;;;16.10;;
58242;SDS011;50118;53.232;8.252;2023-05-07T05:31:56;21.05;;;14.88;;
58242;SDS011;50118;53.232;8.252;2023-05-07T05:34:22;22.20;;;15.18;;
58242;SDS011;50118;53.232;8.252;2023-05-07T05:36:47;23.70;;;15.63;;
58242;SDS011;50118;53.232;8.252;2023-05-07T05:39:13;22.55;;;15.50;;
58242;SDS011;50118;53.232;8.252;2023-05-07T05:41:39;20.67;;;14.48;;
58242;SDS011;50118;53.232;8.252;2023-05-07T05:44:04;19.80;;;14.32;;
58242;SDS011;50118;53.232;8.252;2023-05-07T05:46:30;20.55;;;14.95;;
58242;SDS011;50118;53.232;8.252;2023-05-07T05:48:55;23.60;;;15.75;;
58242;SDS011;50118;53.232;8.252;2023-05-07T05:51:22;23.13;;;16.80;;
58242;SDS011;50118;53.232;8.252;2023-05-07T05:53:48;23.33;;;17.13;;
58242;SDS011;50118;53.232;8.252;2023-05-07T05:56:13;21.92;;;15.55;;
58242;SDS011;50118;53.232;8.252;2023-05-07T05:58:39;24.17;;;15.93;;
58242;SDS011;50118;53.232;8.252;2023-05-07T06:01:04;24.58;;;16.98;;
58242;SDS011;50118;53.232;8.252;2023-05-07T06:03:30;23.40;;;16.27;;
58242;SDS011;50118;53.232;8.252;2023-05-07T06:05:57;23.90;;;16.15;;
58242;SDS011;50118;53.232;8.252;2023-05-07T06:08:23;25.60;;;16.85;;
58242;SDS011;50118;53.232;8.252;2023-05-07T06:10:48;22.05;;;16.25;;
58242;SDS011;50118;53.232;8.252;2023-05-07T06:13:14;21.98;;;14.95;;
58242;SDS011;50118;53.232;8.252;2023-05-07T06:15:39;18.98;;;13.75;;
58242;SDS011;50118;53.232;8.252;2023-05-07T06:18:04;18.17;;;12.73;;
58242;SDS011;50118;53.232;8.252;2023-05-07T06:20:30;17.40;;;12.38;;
58242;SDS011;50118;53.232;8.252;2023-05-07T06:22:55;17.05;;;11.88;;
58242;SDS011;50118;53.232;8.252;2023-05-07T06:25:21;15.73;;;11.48;;
58242;SDS011;50118;53.232;8.252;2023-05-07T06:27:46;14.85;;;10.88;;
58242;SDS011;50118;53.232;8.252;2023-05-07T06:30:12;15.90;;;11.48;;
58242;SDS011;50118;53.232;8.252;2023-05-07T06:32:37;15.23;;;10.50;;
58242;SDS011;50118;53.232;8.252;2023-05-07T06:35:02;16.02;;;11.50;;
58242;SDS011;50118;53.232;8.252;2023-05-07T06:37:28;15.93;;;11.05;;
58242;SDS011;50118;53.232;8.252;2023-05-07T06:39:54;15.73;;;10.75;;
58242;SDS011;50118;53.232;8.252;2023-05-07T06:42:19;12.95;;;9.77;;
58242;SDS011;50118;53.232;8.252;2023-05-07T06:44:44;15.52;;;10.00;;
58242;SDS011;50118;53.232;8.252;2023-05-07T06:47:10;15.20;;;11.13;;
58242;SDS011;50118;53.232;8.252;2023-05-07T06:49:35;13.15;;;9.35;;
58242;SDS011;50118;53.232;8.252;2023-05-07T06:52:01;13.73;;;10.52;;
58242;SDS011;50118;53.232;8.252;2023-05-07T06:54:26;12.98;;;9.43;;
58242;SDS011;50118;53.232;8.252;2023-05-07T06:56:52;15.43;;;10.82;;
58242;SDS011;50118;53.232;8.252;2023-05-07T06:59:17;14.88;;;10.32;;
58242;SDS011;50118;53.232;8.252;2023-05-07T07:01:44;14.35;;;10.75;;
58242;SDS011;50118;53.232;8.252;2023-05-07T07:04:09;15.93;;;10.60;;
58242;SDS011;50118;53.232;8.252;2023-05-07T07:06:35;14.63;;;10.75;;
58242;SDS011;50118;53.232;8.252;2023-05-07T07:09:00;14.85;;;11.27;;
58242;SDS011;50118;53.232;8.252;2023-05-07T07:11:26;16.35;;;12.35;;
58242;SDS011;50118;53.232;8.252;2023-05-07T07:13:51;13.77;;;10.68;;
58242;SDS011;50118;53.232;8.252;2023-05-07T07:16:19;14.40;;;9.98;;
58242;SDS011;50118;53.232;8.252;2023-05-07T07:18:45;13.55;;;10.48;;
58242;SDS011;50118;53.232;8.252;2023-05-07T07:21:11;13.73;;;10.30;;
58242;SDS011;50118;53.232;8.252;2023-05-07T07:23:36;14.23;;;10.95;;
58242;SDS011;50118;53.232;8.252;2023-05-07T07:26:02;12.82;;;9.35;;
58242;SDS011;50118;53.232;8.252;2023-05-07T07:28:27;13.50;;;10.02;;
58242;SDS011;50118;53.232;8.252;2023-05-07T07:30:52;13.27;;;10.05;;
58242;SDS011;50118;53.232;8.252;2023-05-07T07:33:18;12.60;;;9.43;;
58242;SDS011;50118;53.232;8.252;2023-05-07T07:35:43;13.65;;;9.95;;
58242;SDS011;50118;53.232;8.252;2023-05-07T07:38:09;14.15;;;10.13;;
58242;SDS011;50118;53.232;8.252;2023-05-07T07:40:34;13.70;;;9.90;;
58242;SDS011;50118;53.232;8.252;2023-05-07T07:43:00;13.60;;;9.77;;
58242;SDS011;50118;53.232;8.252;2023-05-07T07:45:26;13.10;;;9.13;;
58242;SDS011;50118;53.232;8.252;2023-05-07T07:47:52;11.88;;;9.13;;
58242;SDS011;50118;53.232;8.252;2023-05-07T07:50:17;11.07;;;8.68;;
58242;SDS011;50118;53.232;8.252;2023-05-07T07:52:43;11.63;;;8.48;;
58242;SDS011;50118;53.232;8.252;2023-05-07T07:55:09;10.43;;;7.80;;
58242;SDS011;50118;53.232;8.252;2023-05-07T07:57:34;10.32;;;7.80;;
58242;SDS011;50118;53.232;8.252;2023-05-07T08:00:00;12.18;;;8.00;;
58242;SDS011;50118;53.232;8.252;2023-05-07T08:02:25;10.20;;;8.15;;
58242;SDS011;50118;53.232;8.252;2023-05-07T08:04:51;10.85;;;8.13;;
58242;SDS011;50118;53.232;8.252;2023-05-07T08:07:16;10.20;;;7.97;;
58242;SDS011;50118;53.232;8.252;2023-05-07T08:09:45;10.27;;;8.05;;
58242;SDS011;50118;53.232;8.252;2023-05-07T08:12:11;10.40;;;8.07;;
58242;SDS011;50118;53.232;8.252;2023-05-07T08:14:37;11.68;;;7.95;;
58242;SDS011;50118;53.232;8.252;2023-05-07T08:17:02;10.05;;;8.57;;
58242;SDS011;50118;53.232;8.252;2023-05-07T08:19:28;10.55;;;8.50;;
58242;SDS011;50118;53.232;8.252;2023-05-07T08:21:53;11.02;;;8.80;;
58242;SDS011;50118;53.232;8.252;2023-05-07T08:24:20;10.27;;;8.30;;
58242;SDS011;50118;53.232;8.252;2023-05-07T08:26:45;9.57;;;8.23;;
58242;SDS011;50118;53.232;8.252;2023-05-07T08:29:10;10.13;;;7.85;;
58242;SDS011;50118;53.232;8.252;2023-05-07T08:31:36;9.02;;;7.18;;
58242;SDS011;50118;53.232;8.252;2023-05-07T08:34:02;10.05;;;8.15;;
58242;SDS011;50118;53.232;8.252;2023-05-07T08:36:28;10.73;;;8.25;;
58242;SDS011;50118;53.232;8.252;2023-05-07T08:38:54;10.10;;;8.25;;
58242;SDS011;50118;53.232;8.252;2023-05-07T08:41:19;10.60;;;8.68;;
58242;SDS011;50118;53.232;8.252;2023-05-07T08:43:48;10.90;;;8.57;;
58242;SDS011;50118;53.232;8.252;2023-05-07T08:46:21;10.05;;;8.52;;
58242;SDS011;50118;53.232;8.252;2023-05-07T08:48:47;11.63;;;8.88;;
58242;SDS011;50118;53.232;8.252;2023-05-07T08:51:15;11.13;;;8.65;;
58242;SDS011;50118;53.232;8.252;2023-05-07T08:53:42;10.68;;;8.48;;
58242;SDS011;50118;53.232;8.252;2023-05-07T08:56:08;10.55;;;8.63;;
58242;SDS011;50118;53.232;8.252;2023-05-07T08:58:34;11.00;;;8.43;;
58242;SDS011;50118;53.232;8.252;2023-05-07T09:01:18;9.90;;;8.00;;
58242;SDS011;50118;53.232;8.252;2023-05-07T09:03:44;9.93;;;7.90;;
58242;SDS011;50118;53.232;8.252;2023-05-07T09:06:10;10.00;;;8.35;;
58242;SDS011;50118;53.232;8.252;2023-05-07T09:08:36;9.95;;;7.85;;
58242;SDS011;50118;53.232;8.252;2023-05-07T09:11:02;10.57;;;7.70;;
58242;SDS011;50118;53.232;8.252;2023-05-07T09:13:28;11.05;;;7.60;;
58242;SDS011;50118;53.232;8.252;2023-05-07T09:15:54;9.50;;;7.60;;
58242;SDS011;50118;53.232;8.252;2023-05-07T09:18:20;9.02;;;7.43;;
58242;SDS011;50118;53.232;8.252;2023-05-07T09:20:46;10.43;;;7.80;;
58242;SDS011;50118;53.232;8.252;2023-05-07T09:23:11;9.15;;;7.22;;
58242;SDS011;50118;53.232;8.252;2023-05-07T09:25:37;8.70;;;7.00;;
58242;SDS011;50118;53.232;8.252;2023-05-07T09:28:03;8.60;;;6.95;;
58242;SDS011;50118;53.232;8.252;2023-05-07T09:30:31;8.88;;;7.05;;
58242;SDS011;50118;53.232;8.252;2023-05-07T09:32:58;8.30;;;6.60;;
58242;SDS011;50118;53.232;8.252;2023-05-07T09:35:25;8.85;;;7.05;;
58242;SDS011;50118;53.232;8.252;2023-05-07T09:37:55;8.60;;;5.85;;
58242;SDS011;50118;53.232;8.252;2023-05-07T09:40:25;8.82;;;6.93;;
58242;SDS011;50118;53.232;8.252;2023-05-07T09:42:54;8.60;;;6.60;;
58242;SDS011;50118;53.232;8.252;2023-05-07T09:45:29;9.75;;;6.53;;
58242;SDS011;50118;53.232;8.252;2023-05-07T09:47:55;8.32;;;6.05;;
58242;SDS011;50118;53.232;8.252;2023-05-07T09:50:46;8.18;;;6.43;;
58242;SDS011;50118;53.232;8.252;2023-05-07T09:53:14;8.32;;;6.47;;
58242;SDS011;50118;53.232;8.252;2023-05-07T09:55:42;8.32;;;6.15;;
58242;SDS011;50118;53.232;8.252;2023-05-07T09:58:08;7.78;;;6.03;;
58242;SDS011;50118;53.232;8.252;2023-05-07T10:00:36;8.73;;;6.78;;
58242;SDS011;50118;53.232;8.252;2023-05-07T10:03:02;8.20;;;6.15;;
58242;SDS011;50118;53.232;8.252;2023-05-07T10:05:29;9.30;;;6.57;;
58242;SDS011;50118;53.232;8.252;2023-05-07T10:07:55;9.50;;;6.82;;
58242;SDS011;50118;53.232;8.252;2023-05-07T10:10:25;9.35;;;7.05;;
58242;SDS011;50118;53.232;8.252;2023-05-07T10:12:52;8.00;;;6.28;;
58242;SDS011;50118;53.232;8.252;2023-05-07T10:15:19;7.57;;;5.95;;
58242;SDS011;50118;53.232;8.252;2023-05-07T10:17:44;9.02;;;6.85;;
58242;SDS011;50118;53.232;8.252;2023-05-07T10:20:10;8.70;;;7.28;;
58242;SDS011;50118;53.232;8.252;2023-05-07T10:22:41;9.15;;;7.07;;
58242;SDS011;50118;53.232;8.252;2023-05-07T10:25:09;10.32;;;7.53;;
58242;SDS011;50118;53.232;8.252;2023-05-07T10:27:42;8.40;;;6.95;;
58242;SDS011;50118;53.232;8.252;2023-05-07T10:33:13;9.50;;;7.60;;
58242;SDS011;50118;53.232;8.252;2023-05-07T10:35:42;8.85;;;7.30;;
58242;SDS011;50118;53.232;8.252;2023-05-07T10:38:10;9.50;;;7.40;;
58242;SDS011;50118;53.232;8.252;2023-05-07T10:40:36;8.57;;;7.22;;
58242;SDS011;50118;53.232;8.252;2023-05-07T10:43:02;10.18;;;7.20;;
58242;SDS011;50118;53.232;8.252;2023-05-07T10:45:30;9.65;;;7.28;;
58242;SDS011;50118;53.232;8.252;2023-05-07T10:48:15;9.65;;;6.78;;
58242;SDS011;50118;53.232;8.252;2023-05-07T10:50:42;10.98;;;7.93;;
58242;SDS011;50118;53.232;8.252;2023-05-07T10:55:47;11.73;;;8.75;;
58242;SDS011;50118;53.232;8.252;2023-05-07T11:00:46;12.52;;;8.90;;
58242;SDS011;50118;53.232;8.252;2023-05-07T11:03:11;11.10;;;8.30;;
58242;SDS011;50118;53.232;8.252;2023-05-07T11:05:37;10.10;;;8.10;;
58242;SDS011;50118;53.232;8.252;2023-05-07T11:08:04;9.45;;;8.15;;
58242;SDS011;50118;53.232;8.252;2023-05-07T11:10:52;12.32;;;7.57;;
58242;SDS011;50118;53.232;8.252;2023-05-07T11:13:17;9.52;;;7.80;;
58242;SDS011;50118;53.232;8.252;2023-05-07T11:15:47;9.52;;;7.30;;
58242;SDS011;50118;53.232;8.252;2023-05-07T11:18:14;8.10;;;6.95;;
58242;SDS011;50118;53.232;8.252;2023-05-07T11:20:51;10.00;;;7.45;;
58242;SDS011;50118;53.232;8.252;2023-05-07T11:26:09;8.82;;;6.95;;
58242;SDS011;50118;53.232;8.252;2023-05-07T11:28:39;9.57;;;7.85;;
58242;SDS011;50118;53.232;8.252;2023-05-07T11:31:06;10.85;;;7.53;;
58242;SDS011;50118;53.232;8.252;2023-05-07T11:33:32;11.43;;;7.70;;
58242;SDS011;50118;53.232;8.252;2023-05-07T11:35:59;9.65;;;7.70;;
58242;SDS011;50118;53.232;8.252;2023-05-07T11:38:25;9.98;;;7.28;;
58242;SDS011;50118;53.232;8.252;2023-05-07T11:40:51;10.32;;;7.60;;
58242;SDS011;50118;53.232;8.252;2023-05-07T11:43:17;8.93;;;7.18;;
58242;SDS011;50118;53.232;8.252;2023-05-07T11:45:44;9.80;;;7.22;;
58242;SDS011;50118;53.232;8.252;2023-05-07T11:48:11;9.35;;;7.78;;
58242;SDS011;50118;53.232;8.252;2023-05-07T11:50:49;9.15;;;7.38;;
58242;SDS011;50118;53.232;8.252;2023-05-07T11:53:19;9.07;;;7.80;;
58242;SDS011;50118;53.232;8.252;2023-05-07T11:55:46;8.90;;;6.60;;
58242;SDS011;50118;53.232;8.252;2023-05-07T11:58:12;9.52;;;7.63;;
58242;SDS011;50118;53.232;8.252;2023-05-07T12:00:48;9.50;;;7.75;;
58242;SDS011;50118;53.232;8.252;2023-05-07T12:03:15;10.90;;;7.97;;
58242;SDS011;50118;53.232;8.252;2023-05-07T12:05:40;11.23;;;8.80;;
58242;SDS011;50118;53.232;8.252;2023-05-07T12:08:07;12.18;;;8.35;;
58242;SDS011;50118;53.232;8.252;2023-05-07T12:10:33;10.30;;;8.00;;
58242;SDS011;50118;53.232;8.252;2023-05-07T12:12:58;11.13;;;8.40;;
58242;SDS011;50118;53.232;8.252;2023-05-07T12:15:24;11.55;;;8.38;;
58242;SDS011;50118;53.232;8.252;2023-05-07T12:17:49;10.40;;;7.85;;
58242;SDS011;50118;53.232;8.252;2023-05-07T12:20:15;10.00;;;8.00;;
58242;SDS011;50118;53.232;8.252;2023-05-07T12:22:42;9.93;;;8.23;;
58242;SDS011;50118;53.232;8.252;2023-05-07T12:25:08;10.13;;;8.40;;
58242;SDS011;50118;53.232;8.252;2023-05-07T12:27:36;10.43;;;8.00;;
58242;SDS011;50118;53.232;8.252;2023-05-07T12:30:03;10.00;;;7.68;;
58242;SDS011;50118;53.232;8.252;2023-05-07T12:32:28;11.35;;;8.77;;
58242;SDS011;50118;53.232;8.252;2023-05-07T12:34:54;11.00;;;9.25;;
58242;SDS011;50118;53.232;8.252;2023-05-07T12:37:25;10.15;;;7.95;;
58242;SDS011;50118;53.232;8.252;2023-05-07T12:40:07;10.82;;;8.52;;
58242;SDS011;50118;53.232;8.252;2023-05-07T12:42:37;12.23;;;8.65;;
58242;SDS011;50118;53.232;8.252;2023-05-07T12:45:22;11.68;;;8.93;;
58242;SDS011;50118;53.232;8.252;2023-05-07T12:47:48;10.90;;;8.18;;
58242;SDS011;50118;53.232;8.252;2023-05-07T12:50:13;9.85;;;7.70;;
58242;SDS011;50118;53.232;8.252;2023-05-07T12:52:40;11.18;;;8.15;;
58242;SDS011;50118;53.232;8.252;2023-05-07T12:55:06;8.68;;;7.32;;
58242;SDS011;50118;53.232;8.252;2023-05-07T12:57:42;10.02;;;8.13;;
58242;SDS011;50118;53.232;8.252;2023-05-07T13:00:11;11.43;;;8.38;;
58242;SDS011;50118;53.232;8.252;2023-05-07T13:02:37;10.32;;;7.88;;
58242;SDS011;50118;53.232;8.252;2023-05-07T13:05:04;8.98;;;7.18;;
58242;SDS011;50118;53.232;8.252;2023-05-07T13:07:30;11.45;;;8.25;;
58242;SDS011;50118;53.232;8.252;2023-05-07T13:09:55;8.88;;;7.38;;
58242;SDS011;50118;53.232;8.252;2023-05-07T13:12:20;8.77;;;7.07;;
58242;SDS011;50118;53.232;8.252;2023-05-07T13:14:46;9.45;;;7.50;;
58242;SDS011;50118;53.232;8.252;2023-05-07T13:17:11;9.60;;;7.75;;
58242;SDS011;50118;53.232;8.252;2023-05-07T13:19:37;8.32;;;6.30;;
58242;SDS011;50118;53.232;8.252;2023-05-07T13:22:03;10.52;;;7.55;;
58242;SDS011;50118;53.232;8.252;2023-05-07T13:24:28;10.23;;;7.70;;
58242;SDS011;50118;53.232;8.252;2023-05-07T13:26:54;10.00;;;7.93;;
58242;SDS011;50118;53.232;8.252;2023-05-07T13:29:19;9.60;;;7.70;;
58242;SDS011;50118;53.232;8.252;2023-05-07T13:31:53;9.73;;;7.90;;
58242;SDS011;50118;53.232;8.252;2023-05-07T13:34:19;10.07;;;7.80;;
58242;SDS011;50118;53.232;8.252;2023-05-07T13:36:45;10.85;;;7.82;;
58242;SDS011;50118;53.232;8.252;2023-05-07T13:39:13;11.05;;;8.10;;
58242;SDS011;50118;53.232;8.252;2023-05-07T13:41:39;8.98;;;7.55;;
58242;SDS011;50118;53.232;8.252;2023-05-07T13:44:04;10.85;;;8.05;;
58242;SDS011;50118;53.232;8.252;2023-05-07T13:46:30;8.68;;;7.57;;
58242;SDS011;50118;53.232;8.252;2023-05-07T13:48:56;8.98;;;7.05;;
58242;SDS011;50118;53.232;8.252;2023-05-07T13:51:21;8.32;;;6.78;;
58242;SDS011;50118;53.232;8.252;2023-05-07T13:53:47;11.90;;;7.65;;
58242;SDS011;50118;53.232;8.252;2023-05-07T13:56:13;9.15;;;7.80;;
58242;SDS011;50118;53.232;8.252;2023-05-07T13:58:39;8.70;;;7.03;;
58242;SDS011;50118;53.232;8.252;2023-05-07T14:01:05;8.23;;;7.20;;
58242;SDS011;50118;53.232;8.252;2023-05-07T14:03:30;9.38;;;6.78;;
58242;SDS011;50118;53.232;8.252;2023-05-07T14:05:58;8.20;;;6.60;;
58242;SDS011;50118;53.232;8.252;2023-05-07T14:08:25;8.20;;;6.90;;
58242;SDS011;50118;53.232;8.252;2023-05-07T14:10:50;8.18;;;6.90;;
58242;SDS011;50118;53.232;8.252;2023-05-07T14:13:16;9.25;;;6.50;;
58242;SDS011;50118;53.232;8.252;2023-05-07T14:15:42;8.05;;;5.85;;
58242;SDS011;50118;53.232;8.252;2023-05-07T14:18:11;7.85;;;5.22;;
58242;SDS011;50118;53.232;8.252;2023-05-07T14:20:37;6.35;;;5.60;;
58242;SDS011;50118;53.232;8.252;2023-05-07T14:23:03;6.93;;;5.97;;
58242;SDS011;50118;53.232;8.252;2023-05-07T14:25:28;7.78;;;5.95;;
58242;SDS011;50118;53.232;8.252;2023-05-07T14:27:56;6.72;;;5.30;;
58242;SDS011;50118;53.232;8.252;2023-05-07T14:30:21;6.95;;;6.07;;
58242;SDS011;50118;53.232;8.252;2023-05-07T14:32:49;7.03;;;5.57;;
58242;SDS011;50118;53.232;8.252;2023-05-07T14:35:15;7.15;;;5.70;;
58242;SDS011;50118;53.232;8.252;2023-05-07T14:37:41;7.10;;;5.80;;